sensor_id;sensor_type;location;lat;lon;timestamp;temperature;humidity
7842;DHT22;3966;51.052;13.820;2023-02-22T00:00:17;9.90;99.90
7842;DHT22;3966;51.052;13.820;2023-02-22T00:02:48;9.80;99.90
7842;DHT22;3966;51.052;13.820;2023-02-22T00:05:14;9.80;99.90
7842;DHT22;3966;51.052;13.820;2023-02-22T00:07:42;9.80;99.90
7842;DHT22;3966;51.052;13.820;2023-02-22T00:10:09;9.80;99.90
7842;DHT22;3966;51.052;13.820;2023-02-22T00:12:41;9.80;99.90
7842;DHT22;3966;51.052;13.820;2023-02-22T00:15:08;9.80;99.90
7842;DHT22;3966;51.052;13.820;2023-02-22T00:17:34;9.70;99.90
7842;DHT22;3966;51.052;13.820;2023-02-22T00:20:01;9.70;99.90
7842;DHT22;3966;51.052;13.820;2023-02-22T00:22:29;9.70;99.90
7842;DHT22;3966;51.052;13.820;2023-02-22T00:24:56;9.70;99.90
7842;DHT22;3966;51.052;13.820;2023-02-22T00:27:22;9.60;99.90
7842;DHT22;3966;51.052;13.820;2023-02-22T00:29:47;9.70;99.90
7842;DHT22;3966;51.052;13.820;2023-02-22T00:32:13;9.70;99.90
7842;DHT22;3966;51.052;13.820;2023-02-22T00:34:40;9.60;99.90
7842;DHT22;3966;51.052;13.820;2023-02-22T00:37:05;9.60;99.90
7842;DHT22;3966;51.052;13.820;2023-02-22T00:39:31;9.60;99.90
7842;DHT22;3966;51.052;13.820;2023-02-22T00:41:57;9.60;99.90
7842;DHT22;3966;51.052;13.820;2023-02-22T00:44:23;9.60;99.90
7842;DHT22;3966;51.052;13.820;2023-02-22T00:46:48;9.60;99.90
7842;DHT22;3966;51.052;13.820;2023-02-22T00:49:17;9.60;99.90
7842;DHT22;3966;51.052;13.820;2023-02-22T00:51:43;9.50;99.90
7842;DHT22;3966;51.052;13.820;2023-02-22T00:54:09;9.50;99.90
7842;DHT22;3966;51.052;13.820;2023-02-22T00:56:35;9.50;99.90
7842;DHT22;3966;51.052;13.820;2023-02-22T00:59:02;9.50;99.90
7842;DHT22;3966;51.052;13.820;2023-02-22T01:01:28;9.50;99.90
7842;DHT22;3966;51.052;13.820;2023-02-22T01:03:54;9.50;99.90
7842;DHT22;3966;51.052;13.820;2023-02-22T01:06:20;9.50;99.90
7842;DHT22;3966;51.052;13.820;2023-02-22T01:08:47;9.40;99.90
7842;DHT22;3966;51.052;13.820;2023-02-22T01:11:15;9.40;99.90
7842;DHT22;3966;51.052;13.820;2023-02-22T01:13:41;9.30;99.90
7842;DHT22;3966;51.052;13.820;2023-02-22T01:16:09;9.20;99.90
7842;DHT22;3966;51.052;13.820;2023-02-22T01:18:36;9.20;99.90
7842;DHT22;3966;51.052;13.820;2023-02-22T01:21:03;9.20;99.90
7842;DHT22;3966;51.052;13.820;2023-02-22T01:23:29;9.10;99.90
7842;DHT22;3966;51.052;13.820;2023-02-22T01:25:55;9.10;99.90
7842;DHT22;3966;51.052;13.820;2023-02-22T01:28:21;9.10;99.90
7842;DHT22;3966;51.052;13.820;2023-02-22T01:30:50;9.10;99.90
7842;DHT22;3966;51.052;13.820;2023-02-22T01:33:16;9.10;99.90
7842;DHT22;3966;51.052;13.820;2023-02-22T01:35:42;9.10;99.90
7842;DHT22;3966;51.052;13.820;2023-02-22T01:38:09;9.10;99.90
7842;DHT22;3966;51.052;13.820;2023-02-22T01:40:37;9.10;99.90
7842;DHT22;3966;51.052;13.820;2023-02-22T01:43:27;9.10;99.90
7842;DHT22;3966;51.052;13.820;2023-02-22T01:51:06;9.10;99.90
7842;DHT22;3966;51.052;13.820;2023-02-22T01:53:58;9.10;99.90
7842;DHT22;3966;51.052;13.820;2023-02-22T01:56:25;9.10;99.90
7842;DHT22;3966;51.052;13.820;2023-02-22T01:58:59;9.10;99.90
7842;DHT22;3966;51.052;13.820;2023-02-22T02:01:26;9.10;99.90
7842;DHT22;3966;51.052;13.820;2023-02-22T02:04:00;9.10;99.90
7842;DHT22;3966;51.052;13.820;2023-02-22T02:06:31;9.10;99.90
7842;DHT22;3966;51.052;13.820;2023-02-22T02:09:29;9.10;99.90
7842;DHT22;3966;51.052;13.820;2023-02-22T02:11:58;9.20;99.90
7842;DHT22;3966;51.052;13.820;2023-02-22T02:14:30;9.20;99.90
7842;DHT22;3966;51.052;13.820;2023-02-22T02:16:57;9.20;99.90
7842;DHT22;3966;51.052;13.820;2023-02-22T02:28:06;9.10;99.90
7842;DHT22;3966;51.052;13.820;2023-02-22T02:31:03;9.10;99.90
7842;DHT22;3966;51.052;13.820;2023-02-22T02:33:55;9.10;99.90
7842;DHT22;3966;51.052;13.820;2023-02-22T02:39:27;9.00;99.90
7842;DHT22;3966;51.052;13.820;2023-02-22T02:41:55;9.10;99.90
7842;DHT22;3966;51.052;13.820;2023-02-22T02:47:00;9.10;99.90
7842;DHT22;3966;51.052;13.820;2023-02-22T02:49:37;9.10;99.90
7842;DHT22;3966;51.052;13.820;2023-02-22T02:52:04;9.10;99.90
7842;DHT22;3966;51.052;13.820;2023-02-22T02:54:31;9.10;99.90
7842;DHT22;3966;51.052;13.820;2023-02-22T02:56:58;9.10;99.90
7842;DHT22;3966;51.052;13.820;2023-02-22T02:59:28;9.20;99.90
7842;DHT22;3966;51.052;13.820;2023-02-22T03:05:06;9.20;99.90
7842;DHT22;3966;51.052;13.820;2023-02-22T03:13:23;9.20;99.90
7842;DHT22;3966;51.052;13.820;2023-02-22T03:24:11;9.00;99.90
7842;DHT22;3966;51.052;13.820;2023-02-22T03:26:44;9.00;99.90
7842;DHT22;3966;51.052;13.820;2023-02-22T03:29:12;9.00;99.90
7842;DHT22;3966;51.052;13.820;2023-02-22T03:31:45;9.00;99.90
7842;DHT22;3966;51.052;13.820;2023-02-22T03:34:16;9.00;99.90
7842;DHT22;3966;51.052;13.820;2023-02-22T03:36:58;9.00;99.90
7842;DHT22;3966;51.052;13.820;2023-02-22T03:39:25;9.10;99.90
7842;DHT22;3966;51.052;13.820;2023-02-22T03:41:57;9.10;99.90
7842;DHT22;3966;51.052;13.820;2023-02-22T03:44:27;9.10;99.90
7842;DHT22;3966;51.052;13.820;2023-02-22T03:46:54;9.10;99.90
7842;DHT22;3966;51.052;13.820;2023-02-22T03:49:26;9.10;99.90
7842;DHT22;3966;51.052;13.820;2023-02-22T03:51:56;9.10;99.90
7842;DHT22;3966;51.052;13.820;2023-02-22T03:54:22;9.20;99.90
7842;DHT22;3966;51.052;13.820;2023-02-22T03:56:54;9.10;99.90
7842;DHT22;3966;51.052;13.820;2023-02-22T03:59:22;9.10;99.90
7842;DHT22;3966;51.052;13.820;2023-02-22T04:01:55;9.10;99.90
7842;DHT22;3966;51.052;13.820;2023-02-22T04:04:22;9.10;99.90
7842;DHT22;3966;51.052;13.820;2023-02-22T04:06:48;9.20;99.90
7842;DHT22;3966;51.052;13.820;2023-02-22T04:09:15;9.10;99.90
7842;DHT22;3966;51.052;13.820;2023-02-22T04:11:41;9.10;99.90
7842;DHT22;3966;51.052;13.820;2023-02-22T04:14:07;9.20;99.90
7842;DHT22;3966;51.052;13.820;2023-02-22T04:16:33;9.10;99.90
7842;DHT22;3966;51.052;13.820;2023-02-22T04:18:58;9.10;99.90
7842;DHT22;3966;51.052;13.820;2023-02-22T04:21:24;9.10;99.90
7842;DHT22;3966;51.052;13.820;2023-02-22T04:23:50;9.10;99.90
7842;DHT22;3966;51.052;13.820;2023-02-22T04:26:16;9.10;99.90
7842;DHT22;3966;51.052;13.820;2023-02-22T04:28:41;9.00;99.90
7842;DHT22;3966;51.052;13.820;2023-02-22T04:31:07;9.00;99.90
7842;DHT22;3966;51.052;13.820;2023-02-22T04:33:33;9.00;99.90
7842;DHT22;3966;51.052;13.820;2023-02-22T04:35:59;8.90;99.90
7842;DHT22;3966;51.052;13.820;2023-02-22T04:38:25;8.90;99.90
7842;DHT22;3966;51.052;13.820;2023-02-22T04:40:52;8.90;99.90
7842;DHT22;3966;51.052;13.820;2023-02-22T04:43:18;8.80;99.90
7842;DHT22;3966;51.052;13.820;2023-02-22T04:45:43;8.90;99.90
7842;DHT22;3966;51.052;13.820;2023-02-22T04:48:09;8.80;99.90
7842;DHT22;3966;51.052;13.820;2023-02-22T04:50:35;8.80;99.90
7842;DHT22;3966;51.052;13.820;2023-02-22T04:53:01;8.80;99.90
7842;DHT22;3966;51.052;13.820;2023-02-22T04:55:27;8.80;99.90
7842;DHT22;3966;51.052;13.820;2023-02-22T04:57:53;8.80;99.90
7842;DHT22;3966;51.052;13.820;2023-02-22T05:00:19;8.70;99.90
7842;DHT22;3966;51.052;13.820;2023-02-22T05:02:49;8.70;99.90
7842;DHT22;3966;51.052;13.820;2023-02-22T05:05:16;8.70;99.90
7842;DHT22;3966;51.052;13.820;2023-02-22T05:07:42;8.70;99.90
7842;DHT22;3966;51.052;13.820;2023-02-22T05:10:09;8.70;99.90
7842;DHT22;3966;51.052;13.820;2023-02-22T05:12:35;8.70;99.90
7842;DHT22;3966;51.052;13.820;2023-02-22T05:15:05;8.70;99.90
7842;DHT22;3966;51.052;13.820;2023-02-22T05:17:31;8.70;99.90
7842;DHT22;3966;51.052;13.820;2023-02-22T05:19:57;8.70;99.90
7842;DHT22;3966;51.052;13.820;2023-02-22T05:22:23;8.60;99.90
7842;DHT22;3966;51.052;13.820;2023-02-22T05:24:49;8.70;99.90
7842;DHT22;3966;51.052;13.820;2023-02-22T05:27:17;8.70;99.90
7842;DHT22;3966;51.052;13.820;2023-02-22T05:29:43;8.70;99.90
7842;DHT22;3966;51.052;13.820;2023-02-22T05:32:09;8.70;99.90
7842;DHT22;3966;51.052;13.820;2023-02-22T05:34:37;8.70;99.90
7842;DHT22;3966;51.052;13.820;2023-02-22T05:37:03;8.70;99.90
7842;DHT22;3966;51.052;13.820;2023-02-22T05:39:29;8.70;99.90
7842;DHT22;3966;51.052;13.820;2023-02-22T05:41:55;8.70;99.90
7842;DHT22;3966;51.052;13.820;2023-02-22T05:44:21;8.70;99.90
7842;DHT22;3966;51.052;13.820;2023-02-22T05:46:46;8.70;99.90
7842;DHT22;3966;51.052;13.820;2023-02-22T05:49:12;8.70;99.90
7842;DHT22;3966;51.052;13.820;2023-02-22T05:51:38;8.60;99.90
7842;DHT22;3966;51.052;13.820;2023-02-22T05:54:06;8.70;99.90
7842;DHT22;3966;51.052;13.820;2023-02-22T05:56:32;8.70;99.90
7842;DHT22;3966;51.052;13.820;2023-02-22T05:58:57;8.70;99.90
7842;DHT22;3966;51.052;13.820;2023-02-22T06:01:24;8.60;99.90
7842;DHT22;3966;51.052;13.820;2023-02-22T06:03:50;8.60;99.90
7842;DHT22;3966;51.052;13.820;2023-02-22T06:06:17;8.60;99.90
7842;DHT22;3966;51.052;13.820;2023-02-22T06:08:45;8.60;99.90
7842;DHT22;3966;51.052;13.820;2023-02-22T06:11:11;8.60;99.90
7842;DHT22;3966;51.052;13.820;2023-02-22T06:13:37;8.60;99.90
7842;DHT22;3966;51.052;13.820;2023-02-22T06:16:04;8.50;99.90
7842;DHT22;3966;51.052;13.820;2023-02-22T06:18:30;8.50;99.90
7842;DHT22;3966;51.052;13.820;2023-02-22T06:20:56;8.50;99.90
7842;DHT22;3966;51.052;13.820;2023-02-22T06:23:23;8.50;99.90
7842;DHT22;3966;51.052;13.820;2023-02-22T06:25:48;8.50;99.90
7842;DHT22;3966;51.052;13.820;2023-02-22T06:28:14;8.60;99.90
7842;DHT22;3966;51.052;13.820;2023-02-22T06:30:40;8.60;99.90
7842;DHT22;3966;51.052;13.820;2023-02-22T06:33:09;8.70;99.90
7842;DHT22;3966;51.052;13.820;2023-02-22T06:35:35;8.70;99.90
7842;DHT22;3966;51.052;13.820;2023-02-22T06:38:01;8.60;99.90
7842;DHT22;3966;51.052;13.820;2023-02-22T06:40:27;8.60;99.90
7842;DHT22;3966;51.052;13.820;2023-02-22T06:42:54;8.50;99.90
7842;DHT22;3966;51.052;13.820;2023-02-22T06:45:20;8.50;99.90
7842;DHT22;3966;51.052;13.820;2023-02-22T06:47:46;8.50;99.90
7842;DHT22;3966;51.052;13.820;2023-02-22T06:50:28;8.60;99.90
7842;DHT22;3966;51.052;13.820;2023-02-22T06:52:55;8.60;99.90
7842;DHT22;3966;51.052;13.820;2023-02-22T06:55:24;8.60;99.90
7842;DHT22;3966;51.052;13.820;2023-02-22T06:57:50;8.60;99.90
7842;DHT22;3966;51.052;13.820;2023-02-22T07:00:18;8.60;99.90
7842;DHT22;3966;51.052;13.820;2023-02-22T07:02:45;8.70;99.90
7842;DHT22;3966;51.052;13.820;2023-02-22T07:05:11;8.70;99.90
7842;DHT22;3966;51.052;13.820;2023-02-22T07:07:38;8.70;99.90
7842;DHT22;3966;51.052;13.820;2023-02-22T07:10:06;8.70;99.90
7842;DHT22;3966;51.052;13.820;2023-02-22T07:12:33;8.80;99.90
7842;DHT22;3966;51.052;13.820;2023-02-22T07:14:59;8.80;99.90
7842;DHT22;3966;51.052;13.820;2023-02-22T07:17:24;8.80;99.90
7842;DHT22;3966;51.052;13.820;2023-02-22T07:19:50;8.90;99.90
7842;DHT22;3966;51.052;13.820;2023-02-22T07:22:15;8.90;99.90
7842;DHT22;3966;51.052;13.820;2023-02-22T07:24:42;8.90;99.90
7842;DHT22;3966;51.052;13.820;2023-02-22T07:27:07;8.90;99.90
7842;DHT22;3966;51.052;13.820;2023-02-22T07:29:33;8.90;99.90
7842;DHT22;3966;51.052;13.820;2023-02-22T07:32:01;9.10;99.90
7842;DHT22;3966;51.052;13.820;2023-02-22T07:34:26;9.00;99.90
7842;DHT22;3966;51.052;13.820;2023-02-22T07:36:52;9.10;99.90
7842;DHT22;3966;51.052;13.820;2023-02-22T07:39:18;9.10;99.90
7842;DHT22;3966;51.052;13.820;2023-02-22T07:41:44;9.00;99.90
7842;DHT22;3966;51.052;13.820;2023-02-22T07:44:09;9.00;99.90
7842;DHT22;3966;51.052;13.820;2023-02-22T07:46:35;9.20;99.90
7842;DHT22;3966;51.052;13.820;2023-02-22T07:49:01;9.20;99.90
7842;DHT22;3966;51.052;13.820;2023-02-22T07:51:26;9.20;99.90
7842;DHT22;3966;51.052;13.820;2023-02-22T07:53:52;9.30;99.90
7842;DHT22;3966;51.052;13.820;2023-02-22T07:56:17;9.30;99.90
7842;DHT22;3966;51.052;13.820;2023-02-22T07:58:43;9.30;99.90
7842;DHT22;3966;51.052;13.820;2023-02-22T08:01:09;9.30;99.90
7842;DHT22;3966;51.052;13.820;2023-02-22T08:03:35;9.40;99.90
7842;DHT22;3966;51.052;13.820;2023-02-22T08:06:03;9.40;99.90
7842;DHT22;3966;51.052;13.820;2023-02-22T08:08:29;9.30;99.90
7842;DHT22;3966;51.052;13.820;2023-02-22T08:10:54;9.40;99.90
7842;DHT22;3966;51.052;13.820;2023-02-22T08:13:21;9.50;99.90
7842;DHT22;3966;51.052;13.820;2023-02-22T08:15:49;9.50;99.90
7842;DHT22;3966;51.052;13.820;2023-02-22T08:18:17;9.60;99.90
7842;DHT22;3966;51.052;13.820;2023-02-22T08:20:45;9.60;99.90
7842;DHT22;3966;51.052;13.820;2023-02-22T08:23:12;9.70;99.90
7842;DHT22;3966;51.052;13.820;2023-02-22T08:25:38;9.80;99.90
7842;DHT22;3966;51.052;13.820;2023-02-22T08:28:07;9.90;99.90
7842;DHT22;3966;51.052;13.820;2023-02-22T08:30:34;9.90;99.90
7842;DHT22;3966;51.052;13.820;2023-02-22T08:33:01;9.90;99.90
7842;DHT22;3966;51.052;13.820;2023-02-22T08:35:28;10.00;99.90
7842;DHT22;3966;51.052;13.820;2023-02-22T08:37:59;10.00;99.90
7842;DHT22;3966;51.052;13.820;2023-02-22T08:40:27;10.10;99.90
7842;DHT22;3966;51.052;13.820;2023-02-22T08:42:53;10.10;99.90
7842;DHT22;3966;51.052;13.820;2023-02-22T08:45:19;10.10;99.90
7842;DHT22;3966;51.052;13.820;2023-02-22T08:47:45;10.10;99.90
7842;DHT22;3966;51.052;13.820;2023-02-22T08:50:21;10.10;99.90
7842;DHT22;3966;51.052;13.820;2023-02-22T08:52:51;10.10;99.90
7842;DHT22;3966;51.052;13.820;2023-02-22T08:55:21;10.20;99.90
7842;DHT22;3966;51.052;13.820;2023-02-22T08:57:47;10.40;99.90
7842;DHT22;3966;51.052;13.820;2023-02-22T09:00:14;10.50;99.90
7842;DHT22;3966;51.052;13.820;2023-02-22T09:02:40;10.40;99.90
7842;DHT22;3966;51.052;13.820;2023-02-22T09:05:06;10.40;99.90
7842;DHT22;3966;51.052;13.820;2023-02-22T09:07:32;10.50;99.90
7842;DHT22;3966;51.052;13.820;2023-02-22T09:09:58;10.60;99.90
7842;DHT22;3966;51.052;13.820;2023-02-22T09:12:23;10.70;99.90
7842;DHT22;3966;51.052;13.820;2023-02-22T09:14:49;10.70;99.90
7842;DHT22;3966;51.052;13.820;2023-02-22T09:17:14;10.80;99.90
7842;DHT22;3966;51.052;13.820;2023-02-22T09:19:40;11.00;99.90
7842;DHT22;3966;51.052;13.820;2023-02-22T09:22:06;11.10;99.90
7842;DHT22;3966;51.052;13.820;2023-02-22T09:24:32;11.20;99.90
7842;DHT22;3966;51.052;13.820;2023-02-22T09:26:57;11.20;99.90
7842;DHT22;3966;51.052;13.820;2023-02-22T09:29:26;11.00;99.90
7842;DHT22;3966;51.052;13.820;2023-02-22T09:31:53;11.10;99.90
7842;DHT22;3966;51.052;13.820;2023-02-22T09:34:20;11.20;99.90
7842;DHT22;3966;51.052;13.820;2023-02-22T09:36:47;11.30;99.90
7842;DHT22;3966;51.052;13.820;2023-02-22T09:39:17;11.40;99.90
7842;DHT22;3966;51.052;13.820;2023-02-22T09:44:45;11.40;99.90
7842;DHT22;3966;51.052;13.820;2023-02-22T09:47:25;11.50;99.90
7842;DHT22;3966;51.052;13.820;2023-02-22T09:50:09;11.60;99.90
7842;DHT22;3966;51.052;13.820;2023-02-22T09:52:56;11.60;99.90
7842;DHT22;3966;51.052;13.820;2023-02-22T09:55:36;11.80;99.90
7842;DHT22;3966;51.052;13.820;2023-02-22T09:58:21;11.80;99.90
7842;DHT22;3966;51.052;13.820;2023-02-22T10:00:53;11.70;99.90
7842;DHT22;3966;51.052;13.820;2023-02-22T10:03:46;11.80;99.90
7842;DHT22;3966;51.052;13.820;2023-02-22T10:06:15;12.00;99.90
7842;DHT22;3966;51.052;13.820;2023-02-22T10:08:42;12.00;99.90
7842;DHT22;3966;51.052;13.820;2023-02-22T10:16:56;12.20;99.90
7842;DHT22;3966;51.052;13.820;2023-02-22T10:19:39;12.30;99.90
7842;DHT22;3966;51.052;13.820;2023-02-22T10:22:43;12.40;99.90
7842;DHT22;3966;51.052;13.820;2023-02-22T10:25:14;12.40;99.90
7842;DHT22;3966;51.052;13.820;2023-02-22T10:30:37;12.70;99.90
7842;DHT22;3966;51.052;13.820;2023-02-22T10:33:22;12.90;99.90
7842;DHT22;3966;51.052;13.820;2023-02-22T10:35:51;13.10;99.90
7842;DHT22;3966;51.052;13.820;2023-02-22T10:38:19;13.10;99.90
7842;DHT22;3966;51.052;13.820;2023-02-22T10:40:54;13.00;99.90
7842;DHT22;3966;51.052;13.820;2023-02-22T10:43:21;13.00;99.90
7842;DHT22;3966;51.052;13.820;2023-02-22T10:45:51;12.80;99.90
7842;DHT22;3966;51.052;13.820;2023-02-22T10:48:20;12.70;99.90
7842;DHT22;3966;51.052;13.820;2023-02-22T10:50:47;12.60;99.90
7842;DHT22;3966;51.052;13.820;2023-02-22T10:53:15;12.60;99.90
7842;DHT22;3966;51.052;13.820;2023-02-22T10:56:15;12.60;99.90
7842;DHT22;3966;51.052;13.820;2023-02-22T11:04:19;12.60;99.90
7842;DHT22;3966;51.052;13.820;2023-02-22T11:09:24;12.60;99.90
7842;DHT22;3966;51.052;13.820;2023-02-22T11:12:07;12.60;99.90
7842;DHT22;3966;51.052;13.820;2023-02-22T11:14:33;12.80;99.90
7842;DHT22;3966;51.052;13.820;2023-02-22T11:17:00;12.80;99.90
7842;DHT22;3966;51.052;13.820;2023-02-22T11:19:31;12.70;99.90
7842;DHT22;3966;51.052;13.820;2023-02-22T11:24:47;12.70;99.90
7842;DHT22;3966;51.052;13.820;2023-02-22T11:27:41;12.70;99.90
7842;DHT22;3966;51.052;13.820;2023-02-22T11:30:26;12.90;99.90
7842;DHT22;3966;51.052;13.820;2023-02-22T11:33:17;13.00;99.90
7842;DHT22;3966;51.052;13.820;2023-02-22T11:35:59;13.00;99.90
7842;DHT22;3966;51.052;13.820;2023-02-22T11:38:33;13.10;99.90
7842;DHT22;3966;51.052;13.820;2023-02-22T11:41:17;13.10;99.90
7842;DHT22;3966;51.052;13.820;2023-02-22T11:43:45;13.10;99.90
7842;DHT22;3966;51.052;13.820;2023-02-22T11:46:22;13.10;99.90
7842;DHT22;3966;51.052;13.820;2023-02-22T11:49:04;13.10;99.90
7842;DHT22;3966;51.052;13.820;2023-02-22T11:57:05;13.10;99.90
7842;DHT22;3966;51.052;13.820;2023-02-22T11:59:57;12.90;99.90
7842;DHT22;3966;51.052;13.820;2023-02-22T12:02:39;12.80;99.90
7842;DHT22;3966;51.052;13.820;2023-02-22T12:08:01;13.00;99.90
7842;DHT22;3966;51.052;13.820;2023-02-22T12:10:45;13.10;99.90
7842;DHT22;3966;51.052;13.820;2023-02-22T12:21:43;12.90;99.90
7842;DHT22;3966;51.052;13.820;2023-02-22T12:24:19;13.00;99.90
7842;DHT22;3966;51.052;13.820;2023-02-22T12:27:23;13.10;99.90
7842;DHT22;3966;51.052;13.820;2023-02-22T12:30:05;13.10;99.90
7842;DHT22;3966;51.052;13.820;2023-02-22T12:32:44;13.30;99.90
7842;DHT22;3966;51.052;13.820;2023-02-22T12:35:57;13.10;99.90
7842;DHT22;3966;51.052;13.820;2023-02-22T12:38:14;13.20;99.90
7842;DHT22;3966;51.052;13.820;2023-02-22T12:40:51;13.20;99.90
7842;DHT22;3966;51.052;13.820;2023-02-22T12:43:27;13.10;99.90
7842;DHT22;3966;51.052;13.820;2023-02-22T12:48:56;13.10;99.90
7842;DHT22;3966;51.052;13.820;2023-02-22T12:57:02;12.70;99.90
7842;DHT22;3966;51.052;13.820;2023-02-22T13:00:27;12.70;99.90
7842;DHT22;3966;51.052;13.820;2023-02-22T13:03:00;12.80;99.90
7842;DHT22;3966;51.052;13.820;2023-02-22T13:05:35;12.90;99.90
7842;DHT22;3966;51.052;13.820;2023-02-22T13:11:12;13.00;99.90
7842;DHT22;3966;51.052;13.820;2023-02-22T13:16:39;13.10;99.90
7842;DHT22;3966;51.052;13.820;2023-02-22T13:22:15;12.70;99.90
7842;DHT22;3966;51.052;13.820;2023-02-22T13:27:41;12.80;99.90
7842;DHT22;3966;51.052;13.820;2023-02-22T13:30:35;12.80;99.90
7842;DHT22;3966;51.052;13.820;2023-02-22T13:39:04;13.30;99.90
7842;DHT22;3966;51.052;13.820;2023-02-22T13:44:26;13.10;99.90
7842;DHT22;3966;51.052;13.820;2023-02-22T13:52:37;13.20;99.90
7842;DHT22;3966;51.052;13.820;2023-02-22T13:55:10;13.10;99.90
7842;DHT22;3966;51.052;13.820;2023-02-22T13:57:42;13.00;99.90
7842;DHT22;3966;51.052;13.820;2023-02-22T14:08:06;13.20;99.90
7842;DHT22;3966;51.052;13.820;2023-02-22T14:13:15;13.20;99.90
7842;DHT22;3966;51.052;13.820;2023-02-22T14:18:27;13.20;99.90
7842;DHT22;3966;51.052;13.820;2023-02-22T14:21:13;13.10;99.90
7842;DHT22;3966;51.052;13.820;2023-02-22T14:31:30;12.90;99.90
7842;DHT22;3966;51.052;13.820;2023-02-22T14:36:32;12.80;99.90
7842;DHT22;3966;51.052;13.820;2023-02-22T14:39:31;12.80;99.90
7842;DHT22;3966;51.052;13.820;2023-02-22T14:42:06;12.70;99.90
7842;DHT22;3966;51.052;13.820;2023-02-22T14:47:08;12.70;99.90
7842;DHT22;3966;51.052;13.820;2023-02-22T14:49:41;12.70;99.90
7842;DHT22;3966;51.052;13.820;2023-02-22T14:52:29;12.60;99.90
7842;DHT22;3966;51.052;13.820;2023-02-22T14:55:07;12.60;99.90
7842;DHT22;3966;51.052;13.820;2023-02-22T14:57:59;12.60;99.90
7842;DHT22;3966;51.052;13.820;2023-02-22T15:00:41;12.60;99.90
7842;DHT22;3966;51.052;13.820;2023-02-22T15:05:42;12.50;99.90
7842;DHT22;3966;51.052;13.820;2023-02-22T15:08:08;12.40;99.90
7842;DHT22;3966;51.052;13.820;2023-02-22T15:10:41;12.40;99.90
7842;DHT22;3966;51.052;13.820;2023-02-22T15:13:22;12.40;99.90
7842;DHT22;3966;51.052;13.820;2023-02-22T15:21:03;12.40;99.90
7842;DHT22;3966;51.052;13.820;2023-02-22T15:23:40;12.40;99.90
7842;DHT22;3966;51.052;13.820;2023-02-22T15:26:07;12.30;99.90
7842;DHT22;3966;51.052;13.820;2023-02-22T15:28:40;12.30;99.90
7842;DHT22;3966;51.052;13.820;2023-02-22T15:31:20;12.30;99.90
7842;DHT22;3966;51.052;13.820;2023-02-22T15:33:47;12.20;99.90
7842;DHT22;3966;51.052;13.820;2023-02-22T15:36:15;12.30;99.90
7842;DHT22;3966;51.052;13.820;2023-02-22T15:38:47;12.30;99.90
7842;DHT22;3966;51.052;13.820;2023-02-22T15:41:23;12.20;99.90
7842;DHT22;3966;51.052;13.820;2023-02-22T15:44:01;12.30;99.90
7842;DHT22;3966;51.052;13.820;2023-02-22T15:46:27;12.30;99.90
7842;DHT22;3966;51.052;13.820;2023-02-22T15:51:41;12.30;99.90
7842;DHT22;3966;51.052;13.820;2023-02-22T15:54:11;12.30;99.90
7842;DHT22;3966;51.052;13.820;2023-02-22T15:56:47;12.00;99.90
7842;DHT22;3966;51.052;13.820;2023-02-22T15:59:16;12.00;99.90
7842;DHT22;3966;51.052;13.820;2023-02-22T16:01:49;12.00;99.90
7842;DHT22;3966;51.052;13.820;2023-02-22T16:04:19;12.00;99.90
7842;DHT22;3966;51.052;13.820;2023-02-22T16:06:46;11.90;99.90
7842;DHT22;3966;51.052;13.820;2023-02-22T16:11:41;11.70;99.90
7842;DHT22;3966;51.052;13.820;2023-02-22T16:16:49;11.40;99.90
7842;DHT22;3966;51.052;13.820;2023-02-22T16:19:37;11.40;99.90
7842;DHT22;3966;51.052;13.820;2023-02-22T16:22:04;11.30;99.90
7842;DHT22;3966;51.052;13.820;2023-02-22T16:24:37;11.30;99.90
7842;DHT22;3966;51.052;13.820;2023-02-22T16:29:35;11.10;99.90
7842;DHT22;3966;51.052;13.820;2023-02-22T16:32:01;11.10;99.90
7842;DHT22;3966;51.052;13.820;2023-02-22T16:34:28;11.00;99.90
7842;DHT22;3966;51.052;13.820;2023-02-22T16:36:54;10.90;99.90
7842;DHT22;3966;51.052;13.820;2023-02-22T16:41:55;10.80;99.90
7842;DHT22;3966;51.052;13.820;2023-02-22T16:44:22;10.80;99.90
7842;DHT22;3966;51.052;13.820;2023-02-22T16:46:50;10.70;99.90
7842;DHT22;3966;51.052;13.820;2023-02-22T16:49:16;10.70;99.90
7842;DHT22;3966;51.052;13.820;2023-02-22T16:51:59;10.60;99.90
7842;DHT22;3966;51.052;13.820;2023-02-22T16:54:40;10.60;99.90
7842;DHT22;3966;51.052;13.820;2023-02-22T16:57:06;10.60;99.90
7842;DHT22;3966;51.052;13.820;2023-02-22T16:59:38;10.50;99.90
7842;DHT22;3966;51.052;13.820;2023-02-22T17:02:04;10.50;99.90
7842;DHT22;3966;51.052;13.820;2023-02-22T17:04:33;10.50;99.90
7842;DHT22;3966;51.052;13.820;2023-02-22T17:06:59;10.50;99.90
7842;DHT22;3966;51.052;13.820;2023-02-22T17:09:27;10.50;99.90
7842;DHT22;3966;51.052;13.820;2023-02-22T17:11:53;10.50;99.90
7842;DHT22;3966;51.052;13.820;2023-02-22T17:14:22;10.50;99.90
7842;DHT22;3966;51.052;13.820;2023-02-22T17:16:51;10.40;99.90
7842;DHT22;3966;51.052;13.820;2023-02-22T17:19:21;10.40;99.90
7842;DHT22;3966;51.052;13.820;2023-02-22T17:21:47;10.30;99.90
7842;DHT22;3966;51.052;13.820;2023-02-22T17:24:19;10.30;99.90
7842;DHT22;3966;51.052;13.820;2023-02-22T17:26:46;10.30;99.90
7842;DHT22;3966;51.052;13.820;2023-02-22T17:29:12;10.20;99.90
7842;DHT22;3966;51.052;13.820;2023-02-22T17:31:39;10.30;99.90
7842;DHT22;3966;51.052;13.820;2023-02-22T17:34:05;10.20;99.90
7842;DHT22;3966;51.052;13.820;2023-02-22T17:36:33;10.20;99.90
7842;DHT22;3966;51.052;13.820;2023-02-22T17:39:01;10.20;99.90
7842;DHT22;3966;51.052;13.820;2023-02-22T17:41:27;10.20;99.90
7842;DHT22;3966;51.052;13.820;2023-02-22T17:43:54;10.20;99.90
7842;DHT22;3966;51.052;13.820;2023-02-22T17:46:23;10.10;99.90
7842;DHT22;3966;51.052;13.820;2023-02-22T17:48:50;10.20;99.90
7842;DHT22;3966;51.052;13.820;2023-02-22T17:51:19;10.20;99.90
7842;DHT22;3966;51.052;13.820;2023-02-22T17:53:45;10.10;99.90
7842;DHT22;3966;51.052;13.820;2023-02-22T17:56:13;10.10;99.90
7842;DHT22;3966;51.052;13.820;2023-02-22T17:58:40;10.00;99.90
7842;DHT22;3966;51.052;13.820;2023-02-22T18:01:12;10.10;99.90
7842;DHT22;3966;51.052;13.820;2023-02-22T18:03:42;10.10;99.90
7842;DHT22;3966;51.052;13.820;2023-02-22T18:06:08;10.00;99.90
7842;DHT22;3966;51.052;13.820;2023-02-22T18:08:33;10.00;99.90
7842;DHT22;3966;51.052;13.820;2023-02-22T18:11:02;10.00;99.90
7842;DHT22;3966;51.052;13.820;2023-02-22T18:13:29;9.90;99.90
7842;DHT22;3966;51.052;13.820;2023-02-22T18:15:58;9.90;99.90
7842;DHT22;3966;51.052;13.820;2023-02-22T18:18:24;9.90;99.90
7842;DHT22;3966;51.052;13.820;2023-02-22T18:20:50;9.90;99.90
7842;DHT22;3966;51.052;13.820;2023-02-22T18:23:20;9.90;99.90
7842;DHT22;3966;51.052;13.820;2023-02-22T18:25:49;9.80;99.90
7842;DHT22;3966;51.052;13.820;2023-02-22T18:28:16;9.80;99.90
7842;DHT22;3966;51.052;13.820;2023-02-22T18:30:42;9.80;99.90
7842;DHT22;3966;51.052;13.820;2023-02-22T18:33:07;9.80;99.90
7842;DHT22;3966;51.052;13.820;2023-02-22T18:35:43;9.80;99.90
7842;DHT22;3966;51.052;13.820;2023-02-22T18:38:12;9.70;99.90
7842;DHT22;3966;51.052;13.820;2023-02-22T18:40:39;9.70;99.90
7842;DHT22;3966;51.052;13.820;2023-02-22T18:43:07;9.70;99.90
7842;DHT22;3966;51.052;13.820;2023-02-22T18:45:32;9.70;99.90
7842;DHT22;3966;51.052;13.820;2023-02-22T18:47:58;9.70;99.90
7842;DHT22;3966;51.052;13.820;2023-02-22T18:50:24;9.70;99.90